Time;durP1;ratioP1;P1;durP2;ratioP2;P2;SDS_P1;SDS_P2;PMS_P1;PMS_P2;Temp;Humidity;BMP_temperature;BMP_pressure;BME280_temperature;BME280_humidity;BME280_pressure;Samples;Min_cycle;Max_cycle;Signal;HPM_P1;HPM_P2
2023/01/18 00:00:09;;;;;;;4.07;2.40;;;3.30;99.90;;;;;;5092518;28;20477;-74
2023/01/18 00:02:36;;;;;;;5.73;2.23;;;3.30;1.00;;;;;;5091835;28;20450;-74
2023/01/18 00:05:04;;;;;;;3.73;1.57;;;3.40;1.00;;;;;;5092069;28;20451;-74
2023/01/18 00:07:31;;;;;;;2.17;1.60;;;3.40;99.90;;;;;;5088799;28;20488;-74
2023/01/18 00:09:58;;;;;;;3.17;2.20;;;3.40;99.90;;;;;;5081128;28;20448;-73
2023/01/18 00:12:25;;;;;;;3.23;2.83;;;3.40;99.90;;;;;;5086825;28;20458;-73
2023/01/18 00:14:51;;;;;;;3.60;2.30;;;3.40;99.90;;;;;;5094336;28;20458;-73
2023/01/18 00:17:18;;;;;;;6.93;2.60;;;3.40;99.90;;;;;;5095578;28;20448;-73
2023/01/18 00:19:45;;;;;;;3.70;2.33;;;3.30;1.00;;;;;;5098083;28;20435;-73
2023/01/18 00:22:13;;;;;;;4.00;2.23;;;3.20;1.00;;;;;;5101646;28;20447;-73
2023/01/18 00:24:40;;;;;;;3.33;2.97;;;3.20;1.00;;;;;;5098785;28;20945;-73
2023/01/18 00:27:09;;;;;;;3.90;2.57;;;3.30;1.00;;;;;;5092327;28;20976;-73
2023/01/18 00:29:36;;;;;;;3.53;3.00;;;3.30;1.00;;;;;;5092051;28;20448;-73
2023/01/18 00:32:03;;;;;;;4.27;3.13;;;3.30;99.90;;;;;;5083678;28;20459;-73
2023/01/18 00:34:29;;;;;;;2.07;1.40;;;3.20;99.90;;;;;;5091146;28;20451;-73
2023/01/18 00:36:56;;;;;;;3.70;2.33;;;3.40;1.00;;;;;;5091729;28;20790;-74
2023/01/18 00:39:24;;;;;;;3.87;1.90;;;3.30;99.90;;;;;;5091544;28;20534;-74
2023/01/18 00:44:36;;;;;;;5.53;2.90;;;3.30;99.90;;;;;;5091570;28;20890;-73
2023/01/18 00:47:02;;;;;;;5.23;3.20;;;3.30;99.90;;;;;;5091193;28;20487;-74
2023/01/18 00:49:29;;;;;;;3.43;2.67;;;3.10;99.90;;;;;;5090815;28;20444;-72
2023/01/18 00:51:56;;;;;;;4.57;3.17;;;3.30;1.00;;;;;;5091260;28;20450;-73
2023/01/18 00:54:24;;;;;;;4.90;2.93;;;3.20;99.90;;;;;;5090816;28;20792;-73
2023/01/18 00:56:51;;;;;;;5.47;4.20;;;3.10;99.90;;;;;;5090966;28;20446;-74
2023/01/18 00:59:18;;;;;;;3.73;3.03;;;3.20;99.90;;;;;;5090575;28;20437;-73
2023/01/18 01:01:44;;;;;;;5.13;3.20;;;2.90;99.90;;;;;;5091615;28;20455;-73
2023/01/18 01:06:56;;;;;;;4.67;2.87;;;3.00;1.00;;;;;;5091034;28;20473;-74
2023/01/18 01:09:25;;;;;;;3.90;2.93;;;2.90;1.00;;;;;;5090417;28;20450;-73
2023/01/18 01:28:24;;;;;;;3.40;2.40;;;3.20;99.90;;;;;;5090672;28;20465;-73
2023/01/18 01:30:51;;;;;;;3.80;3.00;;;3.00;99.90;;;;;;5086056;28;20435;-73
2023/01/18 01:33:18;;;;;;;6.20;4.23;;;3.10;1.00;;;;;;5085747;28;20454;-72
2023/01/18 01:35:45;;;;;;;5.60;3.80;;;3.00;99.90;;;;;;5091367;28;20443;-74
2023/01/18 01:38:11;;;;;;;7.90;3.70;;;3.00;1.00;;;;;;5091044;28;20444;-73
2023/01/18 01:40:40;;;;;;;3.83;3.53;;;2.90;99.90;;;;;;5082714;28;20947;-73
2023/01/18 01:43:12;;;;;;;2.67;1.83;;;3.00;1.00;;;;;;5090962;28;21004;-73
2023/01/18 01:45:39;;;;;;;5.17;3.60;;;3.10;99.90;;;;;;5092873;28;20438;-74
2023/01/18 01:48:08;;;;;;;3.43;2.30;;;3.10;99.90;;;;;;5094429;28;20445;-74
2023/01/18 01:50:38;;;;;;;4.13;2.60;;;2.70;99.90;;;;;;5094657;28;20784;-74
2023/01/18 01:53:06;;;;;;;3.43;2.73;;;2.80;1.00;;;;;;5094752;28;20456;-74
2023/01/18 01:55:36;;;;;;;4.50;3.60;;;3.00;1.00;;;;;;5094475;28;20437;-73
2023/01/18 01:58:09;;;;;;;4.70;4.00;;;3.10;1.00;;;;;;5094826;28;20446;-74
2023/01/18 02:00:36;;;;;;;4.93;2.80;;;3.00;99.90;;;;;;5094596;28;20538;-73
2023/01/18 02:03:07;;;;;;;4.73;3.20;;;2.90;99.90;;;;;;5094786;28;20536;-73
2023/01/18 02:05:40;;;;;;;7.90;3.83;;;2.80;1.00;;;;;;5094078;28;20440;-73
2023/01/18 02:08:10;;;;;;;5.60;3.20;;;3.00;1.00;;;;;;5090881;28;20438;-73
2023/01/18 02:10:37;;;;;;;5.70;3.37;;;2.90;99.90;;;;;;5093755;28;20944;-73
2023/01/18 02:13:07;;;;;;;7.00;3.60;;;2.90;1.00;;;;;;5094983;28;20447;-73
2023/01/18 02:15:58;;;;;;;5.13;3.80;;;3.00;1.00;;;;;;5094496;28;20442;-73
2023/01/18 02:18:31;;;;;;;8.03;3.20;;;3.00;1.00;;;;;;5094454;28;20451;-73
2023/01/18 02:21:14;;;;;;;5.30;3.47;;;3.00;99.90;;;;;;5081337;28;20438;-74
2023/01/18 02:24:36;;;;;;;7.03;3.03;;;3.10;1.00;;;;;;5094730;28;20438;-73
2023/01/18 02:27:11;;;;;;;4.10;3.10;;;3.00;1.00;;;;;;5093808;28;20500;-73
2023/01/18 02:30:06;;;;;;;5.87;3.67;;;3.00;99.90;;;;;;5094137;28;20451;-73
2023/01/18 02:32:52;;;;;;;2.90;2.40;;;3.00;99.90;;;;;;5093926;28;20453;-73
2023/01/18 02:35:26;;;;;;;4.40;3.97;;;3.00;99.90;;;;;;5093767;28;20792;-73
2023/01/18 02:38:03;;;;;;;5.10;2.40;;;2.90;15.40;;;;;;5093826;28;20441;-73
2023/01/18 02:40:40;;;;;;;4.20;2.90;;;2.90;99.90;;;;;;5080531;28;20440;-73
2023/01/18 02:48:44;;;;;;;4.30;2.77;;;2.90;99.90;;;;;;5087909;28;21055;-73
2023/01/18 02:51:12;;;;;;;2.63;2.43;;;2.70;99.90;;;;;;5094135;28;20440;-74
2023/01/18 02:53:42;;;;;;;6.43;3.57;;;2.60;1.00;;;;;;5093321;28;20450;-73
2023/01/18 02:56:12;;;;;;;4.47;4.00;;;2.70;1.00;;;;;;5092863;28;20444;-73
2023/01/18 02:58:42;;;;;;;5.23;3.57;;;2.70;1.00;;;;;;5093510;28;20446;-73
2023/01/18 03:01:15;;;;;;;6.17;3.93;;;2.50;1.00;;;;;;5093468;28;20778;-74
2023/01/18 03:03:46;;;;;;;4.27;2.80;;;2.50;1.00;;;;;;5093922;28;20434;-73
2023/01/18 03:06:13;;;;;;;10.77;3.80;;;2.50;1.00;;;;;;5093120;28;20437;-73
2023/01/18 03:08:45;;;;;;;3.40;2.50;;;2.70;1.00;;;;;;5089500;28;20521;-73
2023/01/18 03:11:16;;;;;;;2.93;2.20;;;2.50;99.90;;;;;;5093594;28;20434;-73
2023/01/18 03:14:09;;;;;;;8.33;3.57;;;2.20;1.00;;;;;;5094026;28;20514;-73
2023/01/18 03:16:56;;;;;;;5.10;2.67;;;2.10;1.00;;;;;;5079734;28;20463;-73
2023/01/18 03:22:17;;;;;;;3.10;2.53;;;2.50;1.00;;;;;;5092871;28;20502;-74
2023/01/18 03:24:44;;;;;;;6.33;3.20;;;2.60;1.00;;;;;;5091740;28;20442;-74
2023/01/18 03:35:30;;;;;;;6.83;3.63;;;2.90;99.90;;;;;;5091235;28;20458;-74
2023/01/18 03:37:58;;;;;;;3.87;3.50;;;2.80;99.90;;;;;;5092333;28;20441;-74
2023/01/18 03:40:29;;;;;;;4.37;2.80;;;2.80;1.00;;;;;;5092270;28;20440;-73
2023/01/18 03:43:01;;;;;;;9.73;4.13;;;2.70;1.00;;;;;;5093079;28;20445;-73
2023/01/18 03:45:33;;;;;;;6.30;3.23;;;2.90;99.90;;;;;;5092274;28;20473;-73
2023/01/18 03:48:02;;;;;;;3.90;3.30;;;2.50;1.00;;;;;;5086819;28;20468;-73
2023/01/18 03:50:38;;;;;;;8.83;5.30;;;2.40;1.00;;;;;;5095678;28;20916;-73
2023/01/18 03:53:11;;;;;;;4.60;3.53;;;2.70;1.00;;;;;;5097505;28;20444;-73
2023/01/18 03:55:43;;;;;;;6.20;4.73;;;2.60;1.00;;;;;;5100855;28;20442;-73
2023/01/18 03:58:12;;;;;;;6.77;4.13;;;2.70;1.00;;;;;;5102716;28;20443;-73
2023/01/18 04:00:40;;;;;;;7.07;3.37;;;2.80;1.00;;;;;;5102416;28;20518;-73
2023/01/18 04:03:08;;;;;;;5.53;3.60;;;2.90;1.00;;;;;;5096697;28;20524;-73
2023/01/18 04:05:35;;;;;;;6.27;4.43;;;2.80;99.90;;;;;;5092301;28;20666;-73
2023/01/18 04:08:03;;;;;;;4.97;3.27;;;2.80;99.90;;;;;;5092148;28;20823;-73
2023/01/18 04:10:29;;;;;;;5.43;3.97;;;2.50;99.90;;;;;;5092097;28;20436;-73
2023/01/18 04:12:56;;;;;;;5.43;3.20;;;2.60;1.00;;;;;;5092470;28;20463;-73
2023/01/18 04:15:23;;;;;;;3.30;2.50;;;2.60;1.00;;;;;;5091704;28;20935;-72
2023/01/18 04:17:52;;;;;;;5.20;2.40;;;2.70;99.90;;;;;;5091998;28;20441;-73
2023/01/18 04:20:20;;;;;;;3.20;2.60;;;2.70;99.90;;;;;;5091516;28;20445;-72
2023/01/18 04:22:51;;;;;;;4.70;3.50;;;2.70;99.90;;;;;;5092355;28;20433;-73
2023/01/18 04:25:18;;;;;;;4.63;3.57;;;2.90;99.90;;;;;;5091706;28;20449;-73
2023/01/18 04:27:45;;;;;;;7.93;5.60;;;2.90;99.90;;;;;;5091990;28;20539;-73
2023/01/18 04:30:13;;;;;;;4.20;3.10;;;2.70;99.90;;;;;;5092191;28;20444;-73
2023/01/18 04:32:41;;;;;;;4.93;3.17;;;2.90;99.90;;;;;;5091673;28;20446;-73
2023/01/18 04:35:09;;;;;;;4.30;2.40;;;2.60;99.90;;;;;;5092473;28;20790;-73
2023/01/18 04:37:37;;;;;;;6.27;3.07;;;2.50;1.00;;;;;;5090868;28;20678;-73
2023/01/18 04:40:04;;;;;;;5.17;3.83;;;3.00;1.00;;;;;;5085773;28;20433;-73
2023/01/18 04:42:31;;;;;;;5.43;4.00;;;2.90;1.00;;;;;;5091304;28;20453;-73
2023/01/18 04:44:58;;;;;;;6.43;3.07;;;2.90;1.00;;;;;;5091366;28;20472;-73
2023/01/18 04:47:27;;;;;;;2.37;1.70;;;2.80;1.00;;;;;;5088898;28;20476;-73
2023/01/18 04:49:54;;;;;;;6.73;3.73;;;2.30;1.00;;;;;;5091258;28;20791;-73
2023/01/18 04:52:21;;;;;;;3.97;3.03;;;2.40;1.00;;;;;;5091165;28;20440;-73
2023/01/18 04:54:49;;;;;;;7.20;3.77;;;2.50;1.00;;;;;;5091733;28;20441;-73
2023/01/18 04:57:16;;;;;;;7.83;4.30;;;2.50;1.00;;;;;;5083650;28;20765;-72
2023/01/18 04:59:44;;;;;;;5.37;3.80;;;2.60;1.00;;;;;;5091545;28;20455;-73
2023/01/18 05:02:11;;;;;;;6.60;3.00;;;2.70;1.00;;;;;;5091668;28;20452;-73
2023/01/18 05:04:38;;;;;;;6.27;3.20;;;2.70;1.00;;;;;;5090412;28;20484;-72
2023/01/18 05:07:05;;;;;;;3.80;2.80;;;2.70;1.00;;;;;;5086976;28;20906;-74
2023/01/18 05:09:32;;;;;;;3.20;2.87;;;2.70;1.00;;;;;;5089670;28;20449;-73
2023/01/18 05:12:01;;;;;;;4.30;3.13;;;2.80;99.90;;;;;;5091094;28;20507;-73
2023/01/18 05:14:27;;;;;;;7.10;4.23;;;2.70;99.90;;;;;;5090304;28;20441;-73
2023/01/18 05:16:54;;;;;;;5.53;3.80;;;2.60;99.90;;;;;;5091155;28;20796;-73
2023/01/18 05:19:21;;;;;;;2.20;1.77;;;2.70;99.90;;;;;;5090820;28;20444;-74
2023/01/18 05:21:48;;;;;;;5.50;3.83;;;2.70;99.90;;;;;;5085183;28;20809;-73
2023/01/18 05:24:15;;;;;;;4.50;2.60;;;2.30;99.90;;;;;;5091648;28;20452;-73
2023/01/18 05:26:42;;;;;;;3.30;2.03;;;2.20;1.00;;;;;;5090428;28;20441;-73
2023/01/18 05:29:10;;;;;;;2.90;2.50;;;2.30;1.00;;;;;;5090978;28;20791;-73
2023/01/18 05:31:37;;;;;;;3.00;2.30;;;2.10;1.00;;;;;;5090055;28;20451;-73
2023/01/18 05:34:04;;;;;;;4.57;1.93;;;2.20;1.00;;;;;;5079032;28;20535;-73
2023/01/18 05:36:31;;;;;;;3.27;2.53;;;2.30;1.00;;;;;;5090319;28;20445;-73
2023/01/18 05:38:58;;;;;;;5.30;2.63;;;2.30;99.90;;;;;;5091189;28;20831;-73
2023/01/18 05:41:24;;;;;;;2.67;2.23;;;2.50;99.90;;;;;;5090463;28;20437;-73
2023/01/18 05:43:51;;;;;;;2.33;1.23;;;2.60;99.90;;;;;;5091083;28;20472;-73
2023/01/18 05:46:19;;;;;;;2.47;2.27;;;2.50;1.00;;;;;;5090071;28;20448;-72
2023/01/18 05:48:46;;;;;;;3.30;1.97;;;2.40;1.00;;;;;;5091070;28;20478;-73
2023/01/18 05:51:13;;;;;;;5.03;2.70;;;2.10;1.00;;;;;;5091194;28;20441;-73
2023/01/18 05:53:40;;;;;;;3.43;1.93;;;2.00;1.00;;;;;;5090804;28;20562;-73
2023/01/18 05:56:09;;;;;;;3.77;1.70;;;2.20;1.00;;;;;;5090177;28;20460;-73
2023/01/18 05:58:37;;;;;;;2.43;1.50;;;2.50;99.90;;;;;;5090174;28;20648;-74
2023/01/18 06:01:04;;;;;;;5.63;2.73;;;2.40;1.00;;;;;;5086454;28;20436;-75
2023/01/18 06:03:32;;;;;;;2.20;1.73;;;2.30;99.90;;;;;;5083455;28;20453;-76
2023/01/18 06:05:58;;;;;;;4.27;1.83;;;2.50;99.90;;;;;;5087585;28;20441;-75
2023/01/18 06:08:25;;;;;;;4.27;1.80;;;2.50;82.10;;;;;;5090300;28;20473;-76
2023/01/18 06:10:53;;;;;;;1.63;1.50;;;2.40;99.90;;;;;;5090796;28;20428;-75
2023/01/18 06:13:21;;;;;;;1.43;1.30;;;2.40;99.90;;;;;;5090480;28;20448;-75
2023/01/18 06:15:48;;;;;;;3.70;2.27;;;2.40;99.90;;;;;;5089517;28;20444;-73
2023/01/18 06:18:15;;;;;;;2.47;1.70;;;2.40;99.90;;;;;;5089033;28;20446;-74
2023/01/18 06:20:43;;;;;;;2.80;1.60;;;2.60;99.90;;;;;;5084677;28;20437;-75
2023/01/18 06:23:10;;;;;;;1.90;1.40;;;2.60;99.90;;;;;;5090830;28;20450;-72
2023/01/18 06:25:37;;;;;;;2.83;2.00;;;2.50;99.90;;;;;;5089738;28;20452;-73
2023/01/18 06:28:04;;;;;;;2.37;1.90;;;2.70;99.90;;;;;;5090513;28;20499;-73
2023/01/18 06:30:31;;;;;;;2.80;1.80;;;2.60;99.90;;;;;;5090177;28;20441;-72
2023/01/18 06:33:03;;;;;;;2.17;1.60;;;2.60;99.90;;;;;;5094007;28;20444;-73
2023/01/18 06:35:30;;;;;;;2.17;1.57;;;2.30;1.00;;;;;;5092396;28;20542;-75
2023/01/18 06:37:58;;;;;;;3.10;1.80;;;2.30;1.00;;;;;;5089506;28;20443;-75
2023/01/18 06:40:25;;;;;;;3.47;1.77;;;2.30;1.00;;;;;;5093412;28;20448;-75
2023/01/18 06:42:52;;;;;;;2.20;1.60;;;2.50;1.00;;;;;;5093804;28;20449;-75
2023/01/18 06:45:20;;;;;;;7.13;1.77;;;2.20;1.00;;;;;;5093325;28;20474;-72
2023/01/18 06:47:47;;;;;;;1.50;1.30;;;2.00;1.00;;;;;;5093733;28;20467;-75
2023/01/18 06:50:16;;;;;;;2.20;2.00;;;2.10;1.00;;;;;;5092413;28;20929;-71
2023/01/18 06:52:43;;;;;;;2.40;1.27;;;2.20;1.00;;;;;;5094248;28;20447;-73
2023/01/18 06:55:13;;;;;;;2.67;1.50;;;2.10;1.00;;;;;;5093538;28;20961;-72
2023/01/18 06:57:40;;;;;;;2.80;1.80;;;2.30;1.00;;;;;;5093122;28;20454;-72
2023/01/18 07:00:08;;;;;;;2.23;1.50;;;2.20;1.00;;;;;;5093626;28;20456;-73
2023/01/18 07:02:36;;;;;;;2.30;2.00;;;2.50;1.00;;;;;;5092702;28;20876;-74
2023/01/18 07:05:04;;;;;;;3.87;2.53;;;2.60;99.90;;;;;;5093847;28;20445;-73
2023/01/18 07:07:31;;;;;;;6.20;2.60;;;2.30;99.90;;;;;;5093070;28;20501;-74
2023/01/18 07:09:58;;;;;;;2.13;1.90;;;2.40;99.90;;;;;;5092898;28;20962;-73
2023/01/18 07:12:26;;;;;;;5.50;2.33;;;2.70;1.00;;;;;;5092715;28;20488;-73
2023/01/18 07:14:53;;;;;;;2.93;2.30;;;2.40;99.90;;;;;;5093263;28;20959;-74
2023/01/18 07:17:19;;;;;;;3.80;2.60;;;2.40;99.90;;;;;;5092914;28;20449;-73
2023/01/18 07:19:46;;;;;;;2.70;2.50;;;2.00;99.90;;;;;;5092895;28;20448;-75
2023/01/18 07:22:14;;;;;;;1.90;1.70;;;2.20;99.90;;;;;;5093523;28;20441;-73
2023/01/18 07:24:41;;;;;;;2.40;1.67;;;2.30;1.00;;;;;;5093635;28;20502;-73
2023/01/18 07:27:07;;;;;;;4.63;3.20;;;2.00;99.90;;;;;;5093092;28;20447;-73
2023/01/18 07:29:36;;;;;;;3.23;2.30;;;2.30;99.90;;;;;;5092398;28;20838;-72
2023/01/18 07:32:03;;;;;;;4.70;3.03;;;2.20;99.90;;;;;;5079461;28;20804;-73
2023/01/18 07:34:29;;;;;;;2.93;1.70;;;2.20;99.90;;;;;;5092387;28;20453;-73
2023/01/18 07:36:56;;;;;;;7.40;2.83;;;2.00;99.90;;;;;;5093043;28;20453;-73
2023/01/18 07:39:23;;;;;;;3.13;1.73;;;1.70;99.90;;;;;;5091869;28;20452;-72
2023/01/18 07:41:50;;;;;;;4.13;2.50;;;1.60;99.90;;;;;;5092382;28;20453;-73
2023/01/18 07:44:17;;;;;;;3.00;2.10;;;1.60;1.00;;;;;;5091803;28;20484;-72
2023/01/18 07:46:45;;;;;;;4.67;2.60;;;1.80;1.00;;;;;;5092798;28;20459;-73
2023/01/18 07:49:12;;;;;;;2.83;1.97;;;1.60;1.00;;;;;;5092451;28;20507;-74
2023/01/18 07:51:40;;;;;;;3.00;2.30;;;1.70;1.00;;;;;;5092263;28;20459;-73
2023/01/18 07:54:06;;;;;;;2.80;2.27;;;2.10;1.00;;;;;;5092898;28;20460;-74
2023/01/18 07:56:33;;;;;;;3.73;2.30;;;1.80;1.00;;;;;;5091917;28;20447;-74
2023/01/18 07:59:00;;;;;;;1.83;1.63;;;1.90;1.00;;;;;;5092374;28;20453;-74
2023/01/18 08:01:27;;;;;;;2.67;2.00;;;2.00;1.00;;;;;;5092100;28;20451;-73
2023/01/18 08:03:55;;;;;;;4.43;2.10;;;1.70;99.90;;;;;;5092723;28;20455;-74
2023/01/18 08:06:24;;;;;;;3.20;2.17;;;1.90;99.90;;;;;;5092099;28;20795;-73
2023/01/18 08:08:51;;;;;;;3.37;2.30;;;2.20;99.90;;;;;;5092179;28;20832;-74
2023/01/18 08:11:19;;;;;;;2.77;1.80;;;2.30;99.90;;;;;;5091766;28;20465;-71
2023/01/18 08:13:47;;;;;;;2.90;1.53;;;2.10;1.00;;;;;;5092206;28;20444;-72
2023/01/18 08:16:14;;;;;;;3.80;3.10;;;2.20;99.90;;;;;;5092571;28;20849;-72
2023/01/18 08:18:43;;;;;;;2.93;2.60;;;1.90;99.90;;;;;;5091963;28;20444;-72
2023/01/18 08:21:12;;;;;;;4.10;2.33;;;1.90;99.90;;;;;;5092271;28;20449;-71
2023/01/18 08:23:39;;;;;;;7.33;2.37;;;1.80;1.00;;;;;;5091652;28;20444;-72
2023/01/18 08:26:07;;;;;;;3.60;2.73;;;2.10;1.00;;;;;;5092181;28;20790;-71
2023/01/18 08:28:34;;;;;;;7.10;2.37;;;1.90;99.90;;;;;;5091177;28;20495;-71
2023/01/18 08:31:09;;;;;;;2.70;2.50;;;2.30;99.90;;;;;;5092232;28;20459;-72
2023/01/18 08:33:38;;;;;;;5.03;2.40;;;2.40;96.20;;;;;;5091112;28;20456;-71
2023/01/18 08:36:05;;;;;;;7.83;3.23;;;2.30;1.00;;;;;;5092080;28;20440;-72
2023/01/18 08:38:34;;;;;;;2.60;1.70;;;2.20;1.00;;;;;;5090913;28;20456;-72
2023/01/18 08:41:02;;;;;;;2.27;1.77;;;2.30;99.90;;;;;;5091803;28;20448;-72
2023/01/18 08:43:28;;;;;;;1.67;1.57;;;2.20;1.00;;;;;;5090845;28;20535;-73
2023/01/18 08:45:55;;;;;;;3.60;2.90;;;2.10;99.90;;;;;;5091627;28;20449;-73
2023/01/18 08:48:22;;;;;;;3.00;2.17;;;2.20;1.00;;;;;;5090573;28;20485;-73
2023/01/18 08:50:49;;;;;;;2.40;2.13;;;2.20;99.90;;;;;;5091585;28;20506;-73
2023/01/18 08:53:16;;;;;;;4.07;3.67;;;2.40;99.90;;;;;;5091245;28;20813;-72
2023/01/18 08:55:44;;;;;;;3.13;2.07;;;2.80;1.00;;;;;;5091797;28;20448;-73
2023/01/18 08:58:12;;;;;;;2.60;2.40;;;2.50;63.00;;;;;;5091388;28;20453;-73
2023/01/18 09:00:39;;;;;;;1.90;1.70;;;2.50;99.90;;;;;;5090981;28;20947;-73
2023/01/18 09:03:06;;;;;;;3.47;2.67;;;2.30;1.00;;;;;;5091515;28;20572;-73
2023/01/18 09:05:35;;;;;;;3.17;2.10;;;2.50;99.90;;;;;;5091125;28;20460;-73
2023/01/18 09:08:02;;;;;;;3.47;1.40;;;2.40;1.00;;;;;;5078060;28;20442;-73
2023/01/18 09:10:28;;;;;;;2.47;1.50;;;2.10;99.90;;;;;;5090992;28;20452;-73
2023/01/18 09:12:57;;;;;;;4.63;3.27;;;2.20;99.90;;;;;;5091464;28;20468;-73
2023/01/18 09:15:23;;;;;;;3.13;2.03;;;2.30;1.00;;;;;;5091474;28;20441;-73
2023/01/18 09:17:50;;;;;;;5.67;2.17;;;2.20;1.00;;;;;;5091892;28;20970;-73
2023/01/18 09:20:17;;;;;;;3.30;2.70;;;2.40;99.90;;;;;;5092525;28;20547;-72
2023/01/18 09:22:46;;;;;;;3.30;1.80;;;2.60;96.90;;;;;;5093379;28;20443;-73
2023/01/18 09:25:13;;;;;;;1.50;1.23;;;2.60;99.90;;;;;;5093423;28;20487;-73
2023/01/18 09:27:41;;;;;;;3.40;2.00;;;2.10;99.90;;;;;;5092723;28;20455;-73
2023/01/18 09:30:10;;;;;;;3.87;2.70;;;2.10;99.90;;;;;;5094236;28;20490;-73
2023/01/18 09:32:37;;;;;;;1.37;1.20;;;2.00;99.90;;;;;;5093671;28;20475;-73
2023/01/18 09:35:04;;;;;;;2.33;1.67;;;;;;;;;;5094614;28;20453;-73
2023/01/18 09:37:32;;;;;;;2.23;1.90;;;;;;;;;;5094397;28;20451;-73
2023/01/18 09:39:59;;;;;;;2.10;1.70;;;;;;;;;;5095072;28;20498;-73
2023/01/18 09:42:29;;;;;;;2.13;1.93;;;;;;;;;;5094670;28;20448;-73
2023/01/18 09:44:58;;;;;;;1.70;1.53;;;;;;;;;;5095884;28;20480;-73
2023/01/18 09:47:28;;;;;;;1.63;1.40;;;;;;;;;;5096770;28;20520;-73
2023/01/18 09:49:56;;;;;;;1.40;1.03;;;;;;;;;;5095523;28;20481;-73
2023/01/18 09:52:28;;;;;;;1.80;1.30;;;;;;;;;;5095561;28;20440;-73
2023/01/18 09:54:57;;;;;;;8.07;1.83;;;;;;;;;;5096608;28;20451;-73
2023/01/18 09:57:32;;;;;;;4.93;2.27;;;;;;;;;;5095216;28;20467;-73
2023/01/18 10:00:03;;;;;;;2.20;2.00;;;;;;;;;;5083625;28;20807;-72
2023/01/18 10:02:37;;;;;;;3.00;2.00;;;;;;;;;;5095714;28;20502;-72
2023/01/18 10:05:05;;;;;;;2.10;1.73;;;;;;;;;;5096011;28;20439;-72
2023/01/18 10:07:34;;;;;;;2.87;2.57;;;;;;;;;;5099026;28;20528;-72
2023/01/18 10:10:02;;;;;;;1.90;1.40;;;;;;;;;;5098161;28;20481;-72
2023/01/18 10:12:32;;;;;;;1.90;1.40;;;;;;;;;;5095009;28;20445;-72
2023/01/18 10:15:02;;;;;;;3.27;3.07;;;;;;;;;;5095790;28;20812;-72
2023/01/18 10:17:34;;;;;;;2.10;1.40;;;;;;;;;;5094514;28;20451;-73
2023/01/18 10:20:03;;;;;;;4.40;1.90;;;;;;;;;;5095193;28;20499;-73
2023/01/18 10:22:32;;;;;;;4.17;2.00;;;;;;;;;;5094952;28;20445;-74
2023/01/18 10:25:03;;;;;;;4.20;2.33;;;;;;;;;;5095116;28;20539;-72
2023/01/18 10:27:51;;;;;;;3.43;2.50;;;;;;;;;;5080496;28;20445;-71
2023/01/18 10:30:24;;;;;;;2.57;2.00;;;;;;;;;;5093922;28;20480;-71
2023/01/18 10:32:54;;;;;;;3.37;2.00;;;;;;;;;;5094379;28;20520;-72
2023/01/18 10:35:25;;;;;;;2.37;2.03;;;;;;;;;;5093633;28;20456;-72
2023/01/18 10:37:52;;;;;;;3.53;2.83;;;;;;;;;;5093655;28;20440;-72
2023/01/18 10:40:21;;;;;;;1.97;1.60;;;;;;;;;;5093704;28;20465;-73
2023/01/18 10:42:49;;;;;;;3.03;2.17;;;;;;;;;;5094811;28;20457;-73
2023/01/18 10:45:18;;;;;;;4.83;1.63;;;;;;;;;;5082732;28;20479;-71
2023/01/18 10:47:46;;;;;;;2.87;2.10;;;;;;;;;;5098447;28;20445;-72
2023/01/18 10:50:16;;;;;;;3.07;1.87;;;;;;;;;;5099163;28;20481;-73
2023/01/18 10:52:43;;;;;;;4.57;2.73;;;;;;;;;;5097384;28;20950;-73
2023/01/18 10:55:14;;;;;;;3.27;2.10;;;;;;;;;;5096392;28;20451;-73
2023/01/18 10:57:43;;;;;;;1.70;1.60;;;;;;;;;;5093413;28;20920;-74
2023/01/18 11:00:20;;;;;;;3.43;2.30;;;;;;;;;;5093801;28;20459;-73
2023/01/18 11:02:48;;;;;;;3.00;2.53;;;;;;;;;;5093663;28;20448;-72
2023/01/18 11:05:29;;;;;;;4.10;2.63;;;;;;;;;;5093961;28;20801;-73
2023/01/18 11:08:12;;;;;;;2.30;1.93;;;;;;;;;;5093230;28;20444;-73
2023/01/18 11:10:40;;;;;;;11.93;2.70;;;;;;;;;;5092693;28;20842;-73
2023/01/18 11:13:23;;;;;;;3.60;2.53;;;;;;;;;;5093634;28;20465;-74
2023/01/18 11:15:53;;;;;;;4.23;2.53;;;;;;;;;;5093472;28;20814;-73
2023/01/18 11:18:20;;;;;;;3.10;1.77;;;;;;;;;;5092442;28;20445;-73
2023/01/18 11:20:50;;;;;;;3.47;2.30;;;;;;;;;;5093044;28;21002;-74
2023/01/18 11:23:19;;;;;;;2.40;2.00;;;;;;;;;;5092563;28;20947;-73
2023/01/18 11:25:49;;;;;;;4.43;1.67;;;;;;;;;;5079542;28;20453;-74
2023/01/18 11:28:18;;;;;;;5.77;2.37;;;;;;;;;;5092296;28;20445;-74
2023/01/18 11:30:50;;;;;;;3.87;3.20;;;;;;;;;;5093403;28;20488;-73
2023/01/18 11:33:18;;;;;;;3.17;2.10;;;;;;;;;;5092863;28;20442;-73
2023/01/18 11:35:45;;;;;;;3.67;1.57;;;;;;;;;;5093377;28;20452;-74
2023/01/18 11:38:18;;;;;;;5.87;2.53;;;;;;;;;;5092442;28;20449;-74
2023/01/18 11:40:47;;;;;;;2.57;1.63;;;;;;;;;;5093370;28;20456;-74
2023/01/18 11:43:16;;;;;;;3.13;2.43;;;;;;;;;;5092775;28;20457;-74
2023/01/18 11:45:46;;;;;;;5.13;2.10;;;;;;;;;;5093375;28;20572;-74
2023/01/18 11:48:18;;;;;;;2.73;2.30;;;;;;;;;;5092310;28;20937;-74
2023/01/18 11:50:47;;;;;;;3.07;1.57;;;;;;;;;;5093125;28;20471;-74
2023/01/18 11:53:20;;;;;;;1.90;1.70;;;;;;;;;;5093069;28;20470;-75
2023/01/18 11:55:54;;;;;;;2.80;1.60;;;;;;;;;;5092548;28;20451;-74
2023/01/18 11:58:24;;;;;;;2.53;2.30;;;;;;;;;;5091971;28;20531;-74
2023/01/18 12:00:54;;;;;;;4.13;2.00;;;;;;;;;;5092571;28;20457;-74
2023/01/18 12:03:29;;;;;;;5.13;1.70;;;;;;;;;;5092213;28;20449;-74
2023/01/18 12:06:02;;;;;;;5.80;2.20;;;;;;;;;;5092434;28;20451;-74
2023/01/18 12:08:40;;;;;;;3.10;1.60;;;;;;;;;;5091525;28;20943;-74
2023/01/18 12:11:17;;;;;;;5.50;1.80;;;;;;;;;;5092223;28;20474;-72
2023/01/18 12:13:48;;;;;;;2.47;1.60;;;;;;;;;;5092320;28;20494;-72
2023/01/18 12:16:16;;;;;;;4.00;1.90;;;;;;;;;;5092593;28;20444;-72
2023/01/18 12:18:57;;;;;;;5.10;2.57;;;;;;;;;;5091858;28;20452;-72
2023/01/18 12:21:28;;;;;;;7.30;1.43;;;;;;;;;;5092143;28;20479;-73
2023/01/18 12:24:02;;;;;;;3.90;1.80;;;;;;;;;;5092243;28;20461;-72
2023/01/18 12:26:33;;;;;;;1.63;1.13;;;;;;;;;;5091243;28;20456;-72
2023/01/18 12:29:10;;;;;;;3.23;1.57;;;;;;;;;;5090904;28;20449;-72
2023/01/18 12:31:44;;;;;;;1.70;1.60;;;;;;;;;;5091547;28;20453;-74
2023/01/18 12:34:14;;;;;;;2.33;2.00;;;;;;;;;;5092330;28;20432;-73
2023/01/18 12:36:56;;;;;;;7.83;1.93;;;;;;;;;;5091687;28;20450;-75
2023/01/18 12:39:35;;;;;;;2.20;1.80;;;;;;;;;;5088011;28;20460;-73
2023/01/18 12:42:04;;;;;;;2.60;1.40;;;;;;;;;;5078035;28;20468;-73
2023/01/18 12:44:46;;;;;;;3.40;2.07;;;;;;;;;;5091245;28;20479;-73
2023/01/18 12:47:22;;;;;;;7.23;1.90;;;;;;;;;;5092254;28;20446;-73
2023/01/18 12:49:51;;;;;;;2.80;1.63;;;;;;;;;;5091455;28;20992;-73
2023/01/18 12:52:21;;;;;;;2.57;1.80;;;;;;;;;;5091194;28;20484;-72
2023/01/18 12:54:51;;;;;;;1.70;1.60;;;;;;;;;;5091624;28;20861;-72
2023/01/18 12:57:19;;;;;;;1.87;1.40;;;;;;;;;;5090444;28;20457;-73
2023/01/18 12:59:51;;;;;;;2.27;1.67;;;;;;;;;;5091575;28;20769;-73
2023/01/18 13:02:24;;;;;;;1.87;1.57;;;;;;;;;;5091103;28;20441;-73
2023/01/18 13:04:54;;;;;;;1.63;1.37;;;;;;;;;;5078082;28;20442;-73
2023/01/18 13:07:26;;;;;;;2.23;1.53;;;;;;;;;;5090619;28;20469;-73
2023/01/18 13:09:55;;;;;;;2.20;1.97;;;3.10;99.90;;;;;;5091207;28;20472;-73
2023/01/18 13:12:22;;;;;;;3.27;1.80;;;;;;;;;;5090362;28;20458;-73
2023/01/18 13:14:51;;;;;;;1.87;1.10;;;;;;;;;;5091148;28;20456;-73
2023/01/18 13:17:21;;;;;;;2.80;2.03;;;;;;;;;;5090002;28;20446;-73
2023/01/18 13:19:53;;;;;;;2.93;1.73;;;;;;;;;;5091186;28;20452;-73
2023/01/18 13:22:23;;;;;;;2.10;1.73;;;;;;;;;;5090795;28;20844;-73
2023/01/18 13:25:17;;;;;;;1.77;1.37;;;;;;;;;;5091582;28;20448;-73
2023/01/18 13:27:56;;;;;;;2.77;1.60;;;;;;;;;;5080088;28;20539;-73
2023/01/18 13:30:25;;;;;;;2.80;1.20;;;;;;;;;;5090885;28;20461;-73
2023/01/18 13:32:52;;;;;;;3.30;1.30;;;;;;;;;;5091611;28;20473;-73
2023/01/18 13:35:22;;;;;;;2.90;1.87;;;;;;;;;;5095754;28;20442;-73
2023/01/18 13:37:50;;;;;;;3.77;1.37;;;;;;;;;;5096734;28;20452;-73
2023/01/18 13:40:23;;;;;;;2.90;1.40;;;;;;;;;;5094673;28;20478;-73
2023/01/18 13:42:50;;;;;;;1.73;1.60;;;;;;;;;;5097781;28;20454;-73
2023/01/18 13:45:23;;;;;;;2.50;2.20;;;;;;;;;;5095486;28;20478;-73
2023/01/18 13:48:02;;;;;;;4.87;2.50;;;;;;;;;;5094557;28;20453;-74
2023/01/18 13:50:44;;;;;;;2.83;1.60;;;;;;;;;;5095029;28;20565;-74
2023/01/18 13:53:21;;;;;;;1.10;0.90;;;;;;;;;;5095480;28;20459;-73
2023/01/18 13:55:53;;;;;;;3.63;1.77;;;;;;;;;;5095204;28;20458;-73
2023/01/18 13:58:24;;;;;;;4.30;2.13;;;;;;;;;;5094091;28;20447;-74
2023/01/18 14:00:51;;;;;;;3.50;2.57;;;;;;;;;;5095174;28;20446;-73
2023/01/18 14:03:21;;;;;;;2.93;1.57;;;;;;;;;;5094533;28;20813;-73
2023/01/18 14:05:49;;;;;;;10.73;2.17;;;;;;;;;;5095082;28;20446;-73
2023/01/18 14:08:19;;;;;;;2.77;1.40;;;;;;;;;;5094460;28;20447;-72
2023/01/18 14:10:48;;;;;;;1.70;1.40;;;;;;;;;;5094459;28;20488;-75
2023/01/18 14:13:18;;;;;;;2.50;1.47;;;;;;;;;;5094815;28;20539;-74
2023/01/18 14:15:50;;;;;;;1.93;1.70;;;;;;;;;;5094737;28;20450;-73
2023/01/18 14:18:20;;;;;;;4.10;1.37;;;;;;;;;;5093917;28;20446;-73
2023/01/18 14:20:52;;;;;;;6.53;1.53;;;;;;;;;;5094203;28;20529;-74
2023/01/18 14:23:30;;;;;;;1.93;1.80;;;;;;;;;;5094252;28;20441;-73
2023/01/18 14:25:59;;;;;;;10.00;1.70;;;;;;;;;;5082095;28;20531;-73